sensor_id;sensor_type;location;lat;lon;timestamp;pressure;altitude;pressure_sealevel;temperature;humidity
30110;BME280;14965;50.660;13.226;2024-03-25T00:01:20;93381.34;;;1.84;100.00
30110;BME280;14965;50.660;13.226;2024-03-25T00:03:46;93393.16;;;1.77;100.00
30110;BME280;14965;50.660;13.226;2024-03-25T00:06:12;93396.97;;;1.80;100.00
30110;BME280;14965;50.660;13.226;2024-03-25T00:08:37;93372.84;;;1.82;100.00
30110;BME280;14965;50.660;13.226;2024-03-25T00:11:03;93389.44;;;1.87;100.00
30110;BME280;14965;50.660;13.226;2024-03-25T00:13:29;93376.53;;;1.91;100.00
30110;BME280;14965;50.660;13.226;2024-03-25T00:15:55;93384.31;;;1.93;100.00
30110;BME280;14965;50.660;13.226;2024-03-25T00:18:23;93387.50;;;1.88;100.00
30110;BME280;14965;50.660;13.226;2024-03-25T00:20:49;93388.63;;;1.90;100.00
30110;BME280;14965;50.660;13.226;2024-03-25T00:23:14;93385.47;;;1.92;100.00
30110;BME280;14965;50.660;13.226;2024-03-25T00:25:40;93393.72;;;1.88;100.00
30110;BME280;14965;50.660;13.226;2024-03-25T00:28:06;93389.38;;;1.91;100.00
30110;BME280;14965;50.660;13.226;2024-03-25T00:30:32;93385.56;;;1.88;100.00
30110;BME280;14965;50.660;13.226;2024-03-25T00:32:58;93386.72;;;1.87;100.00
30110;BME280;14965;50.660;13.226;2024-03-25T00:35:25;93385.25;;;1.83;100.00
30110;BME280;14965;50.660;13.226;2024-03-25T00:37:51;93394.19;;;1.83;100.00
30110;BME280;14965;50.660;13.226;2024-03-25T00:40:17;93391.19;;;1.78;100.00
30110;BME280;14965;50.660;13.226;2024-03-25T00:42:43;93385.81;;;1.74;100.00
30110;BME280;14965;50.660;13.226;2024-03-25T00:45:09;93385.94;;;1.67;100.00
30110;BME280;14965;50.660;13.226;2024-03-25T00:47:35;93392.72;;;1.59;100.00
30110;BME280;14965;50.660;13.226;2024-03-25T00:50:01;93384.97;;;1.57;100.00
30110;BME280;14965;50.660;13.226;2024-03-25T00:52:28;93385.25;;;1.43;100.00
30110;BME280;14965;50.660;13.226;2024-03-25T00:54:54;93402.09;;;1.34;100.00
30110;BME280;14965;50.660;13.226;2024-03-25T00:57:20;93392.81;;;1.32;100.00
30110;BME280;14965;50.660;13.226;2024-03-25T00:59:46;93391.63;;;1.33;100.00
30110;BME280;14965;50.660;13.226;2024-03-25T01:02:12;93409.97;;;1.29;100.00
30110;BME280;14965;50.660;13.226;2024-03-25T01:04:38;93406.59;;;1.21;100.00
30110;BME280;14965;50.660;13.226;2024-03-25T01:07:04;93402.75;;;1.18;100.00
30110;BME280;14965;50.660;13.226;2024-03-25T01:09:31;93402.06;;;1.14;100.00
30110;BME280;14965;50.660;13.226;2024-03-25T01:11:57;93407.59;;;1.07;100.00
30110;BME280;14965;50.660;13.226;2024-03-25T01:14:23;93401.38;;;1.07;100.00
30110;BME280;14965;50.660;13.226;2024-03-25T01:16:49;93399.44;;;1.07;100.00
30110;BME280;14965;50.660;13.226;2024-03-25T01:19:15;93398.72;;;1.03;100.00
30110;BME280;14965;50.660;13.226;2024-03-25T01:21:40;93401.44;;;1.03;100.00
30110;BME280;14965;50.660;13.226;2024-03-25T01:24:06;93399.63;;;0.96;100.00
30110;BME280;14965;50.660;13.226;2024-03-25T01:26:34;93389.84;;;0.99;100.00
30110;BME280;14965;50.660;13.226;2024-03-25T01:28:59;93396.38;;;1.05;100.00
30110;BME280;14965;50.660;13.226;2024-03-25T01:31:25;93390.03;;;1.12;100.00
30110;BME280;14965;50.660;13.226;2024-03-25T01:33:51;93398.13;;;1.15;100.00
30110;BME280;14965;50.660;13.226;2024-03-25T01:36:17;93411.25;;;1.20;100.00
30110;BME280;14965;50.660;13.226;2024-03-25T01:38:43;93407.38;;;1.21;100.00
30110;BME280;14965;50.660;13.226;2024-03-25T01:41:10;93413.16;;;1.23;100.00
30110;BME280;14965;50.660;13.226;2024-03-25T01:43:38;93412.28;;;1.30;100.00
30110;BME280;14965;50.660;13.226;2024-03-25T01:46:05;93404.47;;;1.32;100.00
30110;BME280;14965;50.660;13.226;2024-03-25T01:48:31;93404.47;;;1.32;100.00
30110;BME280;14965;50.660;13.226;2024-03-25T01:50:58;93414.50;;;1.35;100.00
30110;BME280;14965;50.660;13.226;2024-03-25T01:53:26;93423.44;;;1.36;100.00
30110;BME280;14965;50.660;13.226;2024-03-25T01:55:55;93408.25;;;1.38;100.00
30110;BME280;14965;50.660;13.226;2024-03-25T01:58:23;93419.94;;;1.35;100.00
30110;BME280;14965;50.660;13.226;2024-03-25T02:00:51;93417.56;;;1.37;100.00
30110;BME280;14965;50.660;13.226;2024-03-25T02:03:17;93410.53;;;1.40;100.00
30110;BME280;14965;50.660;13.226;2024-03-25T02:05:43;93429.59;;;1.40;100.00
30110;BME280;14965;50.660;13.226;2024-03-25T02:08:10;93416.00;;;1.40;100.00
30110;BME280;14965;50.660;13.226;2024-03-25T02:10:38;93431.13;;;1.41;100.00
30110;BME280;14965;50.660;13.226;2024-03-25T02:13:04;93429.16;;;1.41;100.00
30110;BME280;14965;50.660;13.226;2024-03-25T02:15:30;93431.13;;;1.41;100.00
30110;BME280;14965;50.660;13.226;2024-03-25T02:17:57;93436.56;;;1.41;100.00
30110;BME280;14965;50.660;13.226;2024-03-25T02:20:23;93418.22;;;1.45;100.00
30110;BME280;14965;50.660;13.226;2024-03-25T02:22:49;93436.06;;;1.46;100.00
30110;BME280;14965;50.660;13.226;2024-03-25T02:25:17;93433.34;;;1.46;100.00
30110;BME280;14965;50.660;13.226;2024-03-25T02:27:44;93458.56;;;1.50;100.00
30110;BME280;14965;50.660;13.226;2024-03-25T02:30:12;93449.56;;;1.53;100.00
30110;BME280;14965;50.660;13.226;2024-03-25T02:32:40;93456.19;;;1.52;100.00
30110;BME280;14965;50.660;13.226;2024-03-25T02:35:10;93441.84;;;1.52;100.00
30110;BME280;14965;50.660;13.226;2024-03-25T02:37:38;93445.31;;;1.52;100.00
30110;BME280;14965;50.660;13.226;2024-03-25T02:40:08;93453.06;;;1.54;100.00
30110;BME280;14965;50.660;13.226;2024-03-25T02:42:35;93446.09;;;1.53;100.00
30110;BME280;14965;50.660;13.226;2024-03-25T02:45:03;93454.59;;;1.55;100.00
30110;BME280;14965;50.660;13.226;2024-03-25T02:47:29;93457.66;;;1.57;100.00
30110;BME280;14965;50.660;13.226;2024-03-25T02:49:55;93458.44;;;1.57;100.00
30110;BME280;14965;50.660;13.226;2024-03-25T02:52:22;93459.97;;;1.58;100.00
30110;BME280;14965;50.660;13.226;2024-03-25T02:54:48;93455.28;;;1.59;100.00
30110;BME280;14965;50.660;13.226;2024-03-25T02:57:14;93466.97;;;1.59;100.00
30110;BME280;14965;50.660;13.226;2024-03-25T02:59:40;93464.25;;;1.59;100.00
30110;BME280;14965;50.660;13.226;2024-03-25T03:02:07;93474.28;;;1.62;100.00
30110;BME280;14965;50.660;13.226;2024-03-25T03:04:33;93468.84;;;1.62;100.00
30110;BME280;14965;50.660;13.226;2024-03-25T03:06:59;93472.81;;;1.58;100.00
30110;BME280;14965;50.660;13.226;2024-03-25T03:09:25;93479.38;;;1.60;100.00
30110;BME280;14965;50.660;13.226;2024-03-25T03:11:50;93479.38;;;1.60;100.00
30110;BME280;14965;50.660;13.226;2024-03-25T03:14:17;93471.22;;;1.60;100.00
30110;BME280;14965;50.660;13.226;2024-03-25T03:16:43;93485.66;;;1.57;100.00
30110;BME280;14965;50.660;13.226;2024-03-25T03:19:10;93492.97;;;1.60;100.00
30110;BME280;14965;50.660;13.226;2024-03-25T03:21:36;93490.59;;;1.62;100.00
30110;BME280;14965;50.660;13.226;2024-03-25T03:24:02;93511.22;;;1.63;100.00
30110;BME280;14965;50.660;13.226;2024-03-25T03:26:28;93513.94;;;1.63;100.00
30110;BME280;14965;50.660;13.226;2024-03-25T03:28:54;93512.75;;;1.64;100.00
30110;BME280;14965;50.660;13.226;2024-03-25T03:31:20;93514.75;;;1.60;100.00
30110;BME280;14965;50.660;13.226;2024-03-25T03:33:46;93507.00;;;1.59;100.00
30110;BME280;14965;50.660;13.226;2024-03-25T03:36:15;93517.09;;;1.58;100.00
30110;BME280;14965;50.660;13.226;2024-03-25T03:38:40;93519.50;;;1.56;100.00
30110;BME280;14965;50.660;13.226;2024-03-25T03:41:06;93515.34;;;1.48;100.00
30110;BME280;14965;50.660;13.226;2024-03-25T03:43:32;93524.69;;;1.47;100.00
30110;BME280;14965;50.660;13.226;2024-03-25T03:45:58;93543.38;;;1.45;100.00
30110;BME280;14965;50.660;13.226;2024-03-25T03:48:24;93543.84;;;1.40;100.00
30110;BME280;14965;50.660;13.226;2024-03-25T03:50:50;93552.03;;;1.36;100.00
30110;BME280;14965;50.660;13.226;2024-03-25T03:53:18;93541.97;;;1.33;100.00
30110;BME280;14965;50.660;13.226;2024-03-25T03:55:53;93541.25;;;1.29;100.00
30110;BME280;14965;50.660;13.226;2024-03-25T03:58:19;93534.66;;;1.30;100.00
30110;BME280;14965;50.660;13.226;2024-03-25T04:00:45;93540.19;;;1.23;100.00
30110;BME280;14965;50.660;13.226;2024-03-25T04:03:11;93546.41;;;1.23;100.00
30110;BME280;14965;50.660;13.226;2024-03-25T04:05:37;93542.16;;;1.22;100.00
30110;BME280;14965;50.660;13.226;2024-03-25T04:08:04;93550.66;;;1.24;100.00
30110;BME280;14965;50.660;13.226;2024-03-25T04:10:31;93553.44;;;1.21;100.00
30110;BME280;14965;50.660;13.226;2024-03-25T04:12:57;93567.44;;;1.19;100.00
30110;BME280;14965;50.660;13.226;2024-03-25T04:15:23;93568.72;;;1.11;100.00
30110;BME280;14965;50.660;13.226;2024-03-25T04:17:49;93583.31;;;0.94;100.00
30110;BME280;14965;50.660;13.226;2024-03-25T04:20:15;93575.25;;;0.87;100.00
30110;BME280;14965;50.660;13.226;2024-03-25T04:22:42;93578.81;;;0.84;100.00
30110;BME280;14965;50.660;13.226;2024-03-25T04:25:08;93574.13;;;0.84;100.00
30110;BME280;14965;50.660;13.226;2024-03-25T04:27:35;93578.81;;;0.84;100.00
30110;BME280;14965;50.660;13.226;2024-03-25T04:30:01;93574.91;;;0.85;100.00
30110;BME280;14965;50.660;13.226;2024-03-25T04:32:27;93585.06;;;0.81;100.00
30110;BME280;14965;50.660;13.226;2024-03-25T04:34:53;93583.09;;;0.81;100.00
30110;BME280;14965;50.660;13.226;2024-03-25T04:37:19;93587.78;;;0.81;100.00
30110;BME280;14965;50.660;13.226;2024-03-25T04:39:45;93582.34;;;0.81;100.00
30110;BME280;14965;50.660;13.226;2024-03-25T04:42:11;93592.75;;;0.86;100.00
30110;BME280;14965;50.660;13.226;2024-03-25T04:44:38;93590.38;;;0.88;100.00
30110;BME280;14965;50.660;13.226;2024-03-25T04:47:04;93606.28;;;0.89;100.00
30110;BME280;14965;50.660;13.226;2024-03-25T04:49:30;93611.31;;;0.91;100.00
30110;BME280;14965;50.660;13.226;2024-03-25T04:51:56;93612.13;;;0.88;100.00
30110;BME280;14965;50.660;13.226;2024-03-25T04:54:22;93610.59;;;0.87;100.00
30110;BME280;14965;50.660;13.226;2024-03-25T04:56:48;93606.34;;;0.86;100.00
30110;BME280;14965;50.660;13.226;2024-03-25T04:59:14;93605.25;;;0.80;100.00
30110;BME280;14965;50.660;13.226;2024-03-25T05:01:41;93606.03;;;0.80;100.00
30110;BME280;14965;50.660;13.226;2024-03-25T05:04:07;93608.31;;;0.82;100.00
30110;BME280;14965;50.660;13.226;2024-03-25T05:06:33;93609.09;;;0.82;100.00
30110;BME280;14965;50.660;13.226;2024-03-25T05:08:59;93610.28;;;0.81;100.00
30110;BME280;14965;50.660;13.226;2024-03-25T05:11:25;93614.56;;;0.79;100.00
30110;BME280;14965;50.660;13.226;2024-03-25T05:13:51;93634.41;;;0.76;100.00
30110;BME280;14965;50.660;13.226;2024-03-25T05:16:17;93632.06;;;0.78;100.00
30110;BME280;14965;50.660;13.226;2024-03-25T05:18:44;93637.03;;;0.83;100.00
30110;BME280;14965;50.660;13.226;2024-03-25T05:21:10;93632.72;;;0.89;100.00
30110;BME280;14965;50.660;13.226;2024-03-25T05:23:36;93644.72;;;0.88;100.00
30110;BME280;14965;50.660;13.226;2024-03-25T05:26:02;93640.91;;;0.85;100.00
30110;BME280;14965;50.660;13.226;2024-03-25T05:28:28;93637.41;;;0.85;100.00
30110;BME280;14965;50.660;13.226;2024-03-25T05:30:54;93648.28;;;0.85;100.00
30110;BME280;14965;50.660;13.226;2024-03-25T05:33:20;93648.66;;;0.83;100.00
30110;BME280;14965;50.660;13.226;2024-03-25T05:35:47;93653.00;;;0.81;100.00
30110;BME280;14965;50.660;13.226;2024-03-25T05:38:13;93654.53;;;0.82;100.00
30110;BME280;14965;50.660;13.226;2024-03-25T05:40:39;93660.69;;;0.86;100.00
30110;BME280;14965;50.660;13.226;2024-03-25T05:43:05;93648.63;;;0.87;100.00
30110;BME280;14965;50.660;13.226;2024-03-25T05:45:31;93658.31;;;0.88;100.00
30110;BME280;14965;50.660;13.226;2024-03-25T05:47:57;93670.41;;;0.83;100.00
30110;BME280;14965;50.660;13.226;2024-03-25T05:50:23;93673.19;;;0.80;100.00
30110;BME280;14965;50.660;13.226;2024-03-25T05:52:50;93671.25;;;0.80;100.00
30110;BME280;14965;50.660;13.226;2024-03-25T05:55:16;93672.81;;;0.78;100.00
30110;BME280;14965;50.660;13.226;2024-03-25T05:57:42;93664.22;;;0.83;100.00
30110;BME280;14965;50.660;13.226;2024-03-25T06:00:10;93673.88;;;0.87;100.00
30110;BME280;14965;50.660;13.226;2024-03-25T06:02:36;93674.56;;;0.95;100.00
30110;BME280;14965;50.660;13.226;2024-03-25T06:05:02;93674.09;;;1.00;100.00
30110;BME280;14965;50.660;13.226;2024-03-25T06:07:28;93678.78;;;0.99;100.00
30110;BME280;14965;50.660;13.226;2024-03-25T06:09:55;93669.41;;;1.04;100.00
30110;BME280;14965;50.660;13.226;2024-03-25T06:12:21;93681.00;;;1.08;100.00
30110;BME280;14965;50.660;13.226;2024-03-25T06:14:47;93682.91;;;1.11;100.00
30110;BME280;14965;50.660;13.226;2024-03-25T06:17:12;93689.84;;;1.16;100.00
30110;BME280;14965;50.660;13.226;2024-03-25T06:19:38;93687.50;;;1.18;100.00
30110;BME280;14965;50.660;13.226;2024-03-25T06:22:04;93683.56;;;1.22;100.00
30110;BME280;14965;50.660;13.226;2024-03-25T06:24:30;93685.88;;;1.24;100.00
30110;BME280;14965;50.660;13.226;2024-03-25T06:26:58;93694.38;;;1.30;100.00
30110;BME280;14965;50.660;13.226;2024-03-25T06:29:23;93686.22;;;1.30;100.00
30110;BME280;14965;50.660;13.226;2024-03-25T06:31:49;93690.13;;;1.25;100.00
30110;BME280;14965;50.660;13.226;2024-03-25T06:34:15;93700.38;;;1.14;100.00
30110;BME280;14965;50.660;13.226;2024-03-25T06:36:41;93697.31;;;1.08;100.00
30110;BME280;14965;50.660;13.226;2024-03-25T06:39:07;93702.44;;;1.03;100.00
30110;BME280;14965;50.660;13.226;2024-03-25T06:41:33;93705.47;;;1.08;100.00
30110;BME280;14965;50.660;13.226;2024-03-25T06:44:00;93705.84;;;1.10;100.00
30110;BME280;14965;50.660;13.226;2024-03-25T06:46:26;93708.91;;;1.12;100.00
30110;BME280;14965;50.660;13.226;2024-03-25T06:48:52;93717.53;;;1.07;100.00
30110;BME280;14965;50.660;13.226;2024-03-25T06:51:18;93731.50;;;1.09;100.00
30110;BME280;14965;50.660;13.226;2024-03-25T06:53:44;93731.16;;;1.04;100.00
30110;BME280;14965;50.660;13.226;2024-03-25T06:56:10;93734.66;;;1.04;100.00
30110;BME280;14965;50.660;13.226;2024-03-25T06:58:36;93736.97;;;1.06;100.00
30110;BME280;14965;50.660;13.226;2024-03-25T07:01:07;93738.94;;;1.05;100.00
30110;BME280;14965;50.660;13.226;2024-03-25T07:03:34;93746.66;;;1.07;100.00
30110;BME280;14965;50.660;13.226;2024-03-25T07:06:01;93746.59;;;1.14;100.00
30110;BME280;14965;50.660;13.226;2024-03-25T07:08:28;93743.00;;;1.20;100.00
30110;BME280;14965;50.660;13.226;2024-03-25T07:10:54;93755.81;;;1.23;100.00
30110;BME280;14965;50.660;13.226;2024-03-25T07:13:20;93752.69;;;1.25;100.00
30110;BME280;14965;50.660;13.226;2024-03-25T07:15:46;93746.47;;;1.24;100.00
30110;BME280;14965;50.660;13.226;2024-03-25T07:18:13;93745.59;;;1.35;100.00
30110;BME280;14965;50.660;13.226;2024-03-25T07:20:40;93758.03;;;1.32;100.00
30110;BME280;14965;50.660;13.226;2024-03-25T07:23:06;93760.31;;;1.37;100.00
30110;BME280;14965;50.660;13.226;2024-03-25T07:25:32;93767.53;;;1.51;100.00
30110;BME280;14965;50.660;13.226;2024-03-25T07:27:59;93767.38;;;1.65;100.00
30110;BME280;14965;50.660;13.226;2024-03-25T07:30:25;93777.69;;;1.78;100.00
30110;BME280;14965;50.660;13.226;2024-03-25T07:32:51;93767.81;;;1.91;100.00
30110;BME280;14965;50.660;13.226;2024-03-25T07:35:18;93770.84;;;1.96;100.00
30110;BME280;14965;50.660;13.226;2024-03-25T07:37:44;93764.28;;;1.94;100.00
30110;BME280;14965;50.660;13.226;2024-03-25T07:40:10;93763.75;;;2.03;100.00
30110;BME280;14965;50.660;13.226;2024-03-25T07:42:36;93775.41;;;2.03;100.00
30110;BME280;14965;50.660;13.226;2024-03-25T07:45:03;93784.41;;;2.00;100.00
30110;BME280;14965;50.660;13.226;2024-03-25T07:47:29;93777.00;;;2.00;100.00
30110;BME280;14965;50.660;13.226;2024-03-25T07:49:55;93778.31;;;1.92;100.00
30110;BME280;14965;50.660;13.226;2024-03-25T07:52:22;93782.66;;;1.86;100.00
30110;BME280;14965;50.660;13.226;2024-03-25T07:54:48;93782.94;;;1.92;100.00
30110;BME280;14965;50.660;13.226;2024-03-25T07:57:14;93779.84;;;1.93;100.00
30110;BME280;14965;50.660;13.226;2024-03-25T07:59:40;93792.34;;;1.87;100.00
30110;BME280;14965;50.660;13.226;2024-03-25T08:02:06;93800.13;;;1.89;100.00
30110;BME280;14965;50.660;13.226;2024-03-25T08:04:32;93795.50;;;1.86;100.00
30110;BME280;14965;50.660;13.226;2024-03-25T08:06:57;93797.66;;;1.98;100.00
30110;BME280;14965;50.660;13.226;2024-03-25T08:09:25;93803.75;;;2.09;100.00
30110;BME280;14965;50.660;13.226;2024-03-25T08:11:50;93798.22;;;2.13;100.00
30110;BME280;14965;50.660;13.226;2024-03-25T08:14:16;93808.69;;;2.18;100.00
30110;BME280;14965;50.660;13.226;2024-03-25T08:16:42;93806.69;;;2.22;100.00
30110;BME280;14965;50.660;13.226;2024-03-25T08:19:08;93795.38;;;2.23;100.00
30110;BME280;14965;50.660;13.226;2024-03-25T08:21:34;93807.75;;;2.28;100.00
30110;BME280;14965;50.660;13.226;2024-03-25T08:24:00;93807.25;;;2.37;100.00
30110;BME280;14965;50.660;13.226;2024-03-25T08:26:27;93816.50;;;2.43;100.00
30110;BME280;14965;50.660;13.226;2024-03-25T08:28:53;93814.84;;;2.49;100.00
30110;BME280;14965;50.660;13.226;2024-03-25T08:31:19;93818.59;;;2.59;100.00
30110;BME280;14965;50.660;13.226;2024-03-25T08:33:45;93827.81;;;2.68;100.00
30110;BME280;14965;50.660;13.226;2024-03-25T08:36:11;93831.19;;;2.76;100.00
30110;BME280;14965;50.660;13.226;2024-03-25T08:38:37;93825.59;;;2.83;100.00
30110;BME280;14965;50.660;13.226;2024-03-25T08:41:03;93823.97;;;2.89;100.00
30110;BME280;14965;50.660;13.226;2024-03-25T08:43:31;93819.56;;;2.95;100.00
30110;BME280;14965;50.660;13.226;2024-03-25T08:45:57;93824.34;;;2.88;100.00
30110;BME280;14965;50.660;13.226;2024-03-25T08:48:24;93825.66;;;2.80;100.00
30110;BME280;14965;50.660;13.226;2024-03-25T08:50:50;93841.28;;;2.75;100.00
30110;BME280;14965;50.660;13.226;2024-03-25T08:53:16;93840.78;;;2.84;100.00
30110;BME280;14965;50.660;13.226;2024-03-25T08:55:45;93841.38;;;2.95;100.00
30110;BME280;14965;50.660;13.226;2024-03-25T08:58:12;93845.00;;;3.12;100.00
30110;BME280;14965;50.660;13.226;2024-03-25T09:00:39;93842.59;;;3.38;100.00
30110;BME280;14965;50.660;13.226;2024-03-25T09:03:05;93845.31;;;3.61;100.00
30110;BME280;14965;50.660;13.226;2024-03-25T09:05:31;93847.34;;;3.77;100.00
30110;BME280;14965;50.660;13.226;2024-03-25T09:07:57;93851.19;;;3.80;100.00
30110;BME280;14965;50.660;13.226;2024-03-25T09:10:23;93865.00;;;3.72;100.00
30110;BME280;14965;50.660;13.226;2024-03-25T09:12:49;93853.94;;;3.60;100.00
30110;BME280;14965;50.660;13.226;2024-03-25T09:15:15;93865.63;;;3.37;100.00
30110;BME280;14965;50.660;13.226;2024-03-25T09:17:42;93866.28;;;3.21;100.00
30110;BME280;14965;50.660;13.226;2024-03-25T09:20:09;93874.00;;;3.03;100.00
30110;BME280;14965;50.660;13.226;2024-03-25T09:22:35;93880.09;;;2.87;100.00
30110;BME280;14965;50.660;13.226;2024-03-25T09:25:01;93880.91;;;2.84;100.00
30110;BME280;14965;50.660;13.226;2024-03-25T09:27:27;93888.44;;;2.76;100.00
30110;BME280;14965;50.660;13.226;2024-03-25T09:29:53;93902.34;;;2.55;100.00
30110;BME280;14965;50.660;13.226;2024-03-25T09:32:18;93902.22;;;2.38;100.00
30110;BME280;14965;50.660;13.226;2024-03-25T09:34:46;93887.53;;;2.29;100.00
30110;BME280;14965;50.660;13.226;2024-03-25T09:37:11;93892.19;;;2.28;100.00
30110;BME280;14965;50.660;13.226;2024-03-25T09:39:37;93897.63;;;2.32;100.00
30110;BME280;14965;50.660;13.226;2024-03-25T09:42:07;93885.78;;;2.42;100.00
30110;BME280;14965;50.660;13.226;2024-03-25T09:44:34;93897.31;;;2.53;100.00
30110;BME280;14965;50.660;13.226;2024-03-25T09:47:00;93901.41;;;2.68;100.00
30110;BME280;14965;50.660;13.226;2024-03-25T09:49:28;93897.00;;;2.74;100.00
30110;BME280;14965;50.660;13.226;2024-03-25T09:51:56;93892.66;;;2.81;100.00
30110;BME280;14965;50.660;13.226;2024-03-25T09:54:22;93888.88;;;2.98;100.00
30110;BME280;14965;50.660;13.226;2024-03-25T09:56:49;93886.75;;;3.33;100.00
30110;BME280;14965;50.660;13.226;2024-03-25T09:59:16;93881.81;;;3.91;100.00
30110;BME280;14965;50.660;13.226;2024-03-25T10:01:42;93875.88;;;4.52;100.00
30110;BME280;14965;50.660;13.226;2024-03-25T10:04:08;93885.31;;;4.67;100.00
30110;BME280;14965;50.660;13.226;2024-03-25T10:06:34;93886.31;;;4.57;100.00
30110;BME280;14965;50.660;13.226;2024-03-25T10:09:05;93881.38;;;4.32;100.00
30110;BME280;14965;50.660;13.226;2024-03-25T10:11:31;93889.31;;;4.07;100.00
30110;BME280;14965;50.660;13.226;2024-03-25T10:13:56;93894.25;;;3.92;100.00
30110;BME280;14965;50.660;13.226;2024-03-25T10:16:22;93893.00;;;3.77;100.00
30110;BME280;14965;50.660;13.226;2024-03-25T10:18:48;93891.34;;;3.59;100.00
30110;BME280;14965;50.660;13.226;2024-03-25T10:21:14;93890.91;;;3.41;100.00
30110;BME280;14965;50.660;13.226;2024-03-25T10:23:40;93894.88;;;3.36;100.00
30110;BME280;14965;50.660;13.226;2024-03-25T10:26:08;93894.13;;;3.36;100.00
30110;BME280;14965;50.660;13.226;2024-03-25T10:28:34;93902.69;;;3.34;100.00
30110;BME280;14965;50.660;13.226;2024-03-25T10:31:03;93899.47;;;3.43;100.00
30110;BME280;14965;50.660;13.226;2024-03-25T10:33:29;93902.41;;;3.52;100.00
30110;BME280;14965;50.660;13.226;2024-03-25T10:35:59;93908.94;;;3.58;100.00
30110;BME280;14965;50.660;13.226;2024-03-25T10:38:29;93903.25;;;3.49;100.00
30110;BME280;14965;50.660;13.226;2024-03-25T10:40:57;93904.00;;;3.49;100.00
30110;BME280;14965;50.660;13.226;2024-03-25T10:43:29;93902.97;;;3.43;100.00
30110;BME280;14965;50.660;13.226;2024-03-25T10:45:57;93910.97;;;3.31;100.00
30110;BME280;14965;50.660;13.226;2024-03-25T10:48:28;93909.28;;;3.37;100.00
30110;BME280;14965;50.660;13.226;2024-03-25T10:50:56;93899.34;;;3.27;100.00
30110;BME280;14965;50.660;13.226;2024-03-25T10:53:24;93910.53;;;3.32;100.00
30110;BME280;14965;50.660;13.226;2024-03-25T10:55:55;93909.94;;;3.44;100.00
30110;BME280;14965;50.660;13.226;2024-03-25T10:58:22;93908.81;;;3.65;100.00
30110;BME280;14965;50.660;13.226;2024-03-25T11:00:52;93909.06;;;3.94;100.00
30110;BME280;14965;50.660;13.226;2024-03-25T11:03:19;93917.19;;;3.98;100.00
30110;BME280;14965;50.660;13.226;2024-03-25T11:05:45;93906.41;;;4.11;100.00
30110;BME280;14965;50.660;13.226;2024-03-25T11:08:11;93900.00;;;4.37;100.00
30110;BME280;14965;50.660;13.226;2024-03-25T11:10:40;93910.38;;;4.46;100.00
30110;BME280;14965;50.660;13.226;2024-03-25T11:13:11;93897.84;;;4.48;100.00
30110;BME280;14965;50.660;13.226;2024-03-25T11:15:37;93903.31;;;4.48;100.00
30110;BME280;14965;50.660;13.226;2024-03-25T11:18:10;93901.47;;;4.42;100.00
30110;BME280;14965;50.660;13.226;2024-03-25T11:20:36;93900.78;;;4.38;100.00
30110;BME280;14965;50.660;13.226;2024-03-25T11:23:09;93902.53;;;4.28;100.00
30110;BME280;14965;50.660;13.226;2024-03-25T11:25:35;93894.53;;;4.17;100.00
30110;BME280;14965;50.660;13.226;2024-03-25T11:28:01;93898.16;;;4.14;100.00
30110;BME280;14965;50.660;13.226;2024-03-25T11:30:27;93897.97;;;4.21;100.00
30110;BME280;14965;50.660;13.226;2024-03-25T11:32:55;93884.88;;;4.33;100.00
30110;BME280;14965;50.660;13.226;2024-03-25T11:35:22;93885.56;;;4.37;100.00
30110;BME280;14965;50.660;13.226;2024-03-25T11:37:48;93893.81;;;4.53;100.00
30110;BME280;14965;50.660;13.226;2024-03-25T11:40:14;93889.78;;;4.78;100.00
30110;BME280;14965;50.660;13.226;2024-03-25T11:42:41;93894.75;;;4.99;100.00
30110;BME280;14965;50.660;13.226;2024-03-25T11:45:13;93885.53;;;5.09;100.00
30110;BME280;14965;50.660;13.226;2024-03-25T11:47:39;93886.91;;;5.17;100.00
30110;BME280;14965;50.660;13.226;2024-03-25T11:50:08;93883.06;;;5.31;100.00
30110;BME280;14965;50.660;13.226;2024-03-25T11:52:36;93891.59;;;5.49;100.00
30110;BME280;14965;50.660;13.226;2024-03-25T11:55:02;93888.34;;;5.55;100.00
30110;BME280;14965;50.660;13.226;2024-03-25T11:57:28;93880.69;;;5.79;99.56
30110;BME280;14965;50.660;13.226;2024-03-25T11:59:54;93883.41;;;5.95;99.59
30110;BME280;14965;50.660;13.226;2024-03-25T12:02:21;93883.09;;;6.06;99.16
30110;BME280;14965;50.660;13.226;2024-03-25T12:04:48;93886.69;;;6.19;98.99
30110;BME280;14965;50.660;13.226;2024-03-25T12:07:14;93878.84;;;6.05;94.97
30110;BME280;14965;50.660;13.226;2024-03-25T12:09:42;93889.03;;;6.04;95.57
30110;BME280;14965;50.660;13.226;2024-03-25T12:12:09;93875.00;;;6.02;96.15
30110;BME280;14965;50.660;13.226;2024-03-25T12:14:35;93880.81;;;6.04;95.16
30110;BME280;14965;50.660;13.226;2024-03-25T12:17:01;93878.69;;;5.95;95.00
30110;BME280;14965;50.660;13.226;2024-03-25T12:19:27;93887.06;;;6.05;96.89
30110;BME280;14965;50.660;13.226;2024-03-25T12:21:59;93873.69;;;6.07;95.97
30110;BME280;14965;50.660;13.226;2024-03-25T12:24:26;93878.25;;;5.97;91.47
30110;BME280;14965;50.660;13.226;2024-03-25T12:26:53;93873.53;;;5.97;94.64
30110;BME280;14965;50.660;13.226;2024-03-25T12:29:19;93873.97;;;5.96;91.76
30110;BME280;14965;50.660;13.226;2024-03-25T12:31:54;93881.34;;;5.99;92.83
30110;BME280;14965;50.660;13.226;2024-03-25T12:34:20;93879.28;;;6.03;91.63
30110;BME280;14965;50.660;13.226;2024-03-25T12:36:46;93874.75;;;5.96;89.95
30110;BME280;14965;50.660;13.226;2024-03-25T12:39:17;93878.16;;;6.01;90.29
30110;BME280;14965;50.660;13.226;2024-03-25T12:41:43;93870.97;;;6.07;93.41
30110;BME280;14965;50.660;13.226;2024-03-25T12:44:12;93886.28;;;6.04;92.14
30110;BME280;14965;50.660;13.226;2024-03-25T12:46:38;93873.31;;;5.92;88.87